createdAt,value
2022-11-09T00:01:30.553Z,9.27
2022-11-09T00:04:03.066Z,8.80
2022-11-09T00:06:32.405Z,8.33
2022-11-09T00:09:06.847Z,8.73
2022-11-09T00:11:36.518Z,9.23
2022-11-09T00:14:04.976Z,9.20
2022-11-09T00:16:33.404Z,8.80
2022-11-09T00:19:03.153Z,9.13
2022-11-09T00:21:31.581Z,9.40
2022-11-09T00:23:59.908Z,9.20
2022-11-09T00:26:28.326Z,9.60
2022-11-09T00:28:56.826Z,10.57
2022-11-09T00:31:25.922Z,10.20
2022-11-09T00:33:55.745Z,12.23
2022-11-09T00:36:27.674Z,10.30
2022-11-09T00:38:57.786Z,10.33
2022-11-09T00:41:27.076Z,10.70
2022-11-09T00:43:55.757Z,9.33
2022-11-09T00:46:24.472Z,10.20
2022-11-09T00:48:53.184Z,10.43
2022-11-09T00:51:21.557Z,10.37
2022-11-09T00:53:54.906Z,11.27
2022-11-09T00:56:23.401Z,11.50
2022-11-09T00:58:54.916Z,11.93
2022-11-09T01:01:23.634Z,12.20
2022-11-09T01:03:52.169Z,12.20
2022-11-09T01:06:22.210Z,13.90
2022-11-09T01:08:53.118Z,13.37
2022-11-09T01:11:22.317Z,14.37
2022-11-09T01:13:50.716Z,13.10
2022-11-09T01:16:21.749Z,13.77
2022-11-09T01:18:50.397Z,13.93
2022-11-09T01:21:18.727Z,12.53
2022-11-09T01:23:47.084Z,12.27
2022-11-09T01:26:17.796Z,12.10
2022-11-09T01:28:46.446Z,11.70
2022-11-09T01:31:16.680Z,11.60
2022-11-09T01:33:45.287Z,12.50
2022-11-09T01:36:15.668Z,12.20
2022-11-09T01:38:44.539Z,12.67
2022-11-09T01:41:14.846Z,12.43
2022-11-09T01:43:45.375Z,12.87
2022-11-09T01:46:18.114Z,12.47
2022-11-09T01:48:49.489Z,12.67
2022-11-09T01:51:23.927Z,14.70
2022-11-09T01:53:54.657Z,13.43
2022-11-09T01:56:23.466Z,13.53
2022-11-09T01:58:57.354Z,12.77
2022-11-09T02:01:26.200Z,13.23
2022-11-09T02:03:57.616Z,14.27
2022-11-09T02:06:27.643Z,13.40
2022-11-09T02:09:04.543Z,14.37
2022-11-09T02:11:33.315Z,13.57
2022-11-09T02:14:04.533Z,13.47
2022-11-09T02:16:33.663Z,13.43
2022-11-09T02:19:02.368Z,13.33
2022-11-09T02:21:33.394Z,14.47
2022-11-09T02:24:02.435Z,14.43
2022-11-09T02:26:34.375Z,14.97
2022-11-09T02:29:04.792Z,14.37
2022-11-09T02:31:36.213Z,15.13
2022-11-09T02:34:08.363Z,14.17
2022-11-09T02:36:38.553Z,13.93
2022-11-09T02:39:07.296Z,13.97
2022-11-09T02:41:36.268Z,13.73
2022-11-09T02:44:04.571Z,13.33
2022-11-09T02:46:34.825Z,13.70
2022-11-09T02:49:03.443Z,12.60
2022-11-09T02:51:32.142Z,13.07
2022-11-09T02:54:02.104Z,13.97
2022-11-09T02:56:30.457Z,14.23
2022-11-09T02:58:58.671Z,14.47
2022-11-09T03:01:27.105Z,14.57
2022-11-09T03:03:55.584Z,13.53
2022-11-09T03:06:34.841Z,14.87
2022-11-09T03:09:06.535Z,14.10
2022-11-09T03:11:35.392Z,15.20
2022-11-09T03:14:03.850Z,14.67
2022-11-09T03:16:32.492Z,14.90
2022-11-09T03:19:01.333Z,15.93
2022-11-09T03:21:30.652Z,15.70
2022-11-09T03:23:58.927Z,14.87
2022-11-09T03:26:28.616Z,14.90
2022-11-09T03:28:56.825Z,14.53
2022-11-09T03:31:25.183Z,14.00
2022-11-09T03:33:53.484Z,14.37
2022-11-09T03:36:21.754Z,13.53
2022-11-09T03:38:50.013Z,14.97
2022-11-09T03:41:18.504Z,15.47
2022-11-09T03:43:48.294Z,13.80
2022-11-09T03:46:16.681Z,14.53
2022-11-09T03:48:45.363Z,14.07
2022-11-09T03:51:13.653Z,14.67
2022-11-09T03:53:41.863Z,15.20
2022-11-09T03:56:10.322Z,14.83
2022-11-09T03:58:38.653Z,15.10
2022-11-09T04:01:08.533Z,14.70
2022-11-09T04:03:36.870Z,14.73
2022-11-09T04:06:05.287Z,15.43
2022-11-09T04:08:33.634Z,15.23
2022-11-09T04:11:02.026Z,15.03
2022-11-09T04:13:30.483Z,15.80
2022-11-09T04:15:58.993Z,15.73
2022-11-09T04:18:28.704Z,16.50
2022-11-09T04:20:59.505Z,15.17
2022-11-09T04:23:27.868Z,15.90
2022-11-09T04:25:56.173Z,15.67
2022-11-09T04:28:24.563Z,16.10
2022-11-09T04:30:53.014Z,15.20
2022-11-09T04:33:22.099Z,15.87
2022-11-09T04:35:52.062Z,14.60
2022-11-09T04:38:20.514Z,15.27
2022-11-09T04:40:48.795Z,16.60
2022-11-09T04:43:17.587Z,14.67
2022-11-09T04:45:47.523Z,15.17
2022-11-09T04:48:15.894Z,13.93
2022-11-09T04:50:44.421Z,14.80
2022-11-09T04:53:15.650Z,15.03
2022-11-09T04:55:44.384Z,14.43
2022-11-09T04:58:12.722Z,13.40
2022-11-09T05:00:41.117Z,12.87
2022-11-09T05:03:09.664Z,13.13
2022-11-09T05:05:42.842Z,13.03
2022-11-09T05:08:16.767Z,13.60
2022-11-09T05:10:44.976Z,14.03
2022-11-09T05:13:14.234Z,13.13
2022-11-09T05:15:42.933Z,12.33
2022-11-09T05:18:12.024Z,13.93
2022-11-09T05:20:40.465Z,14.67
2022-11-09T05:23:25.918Z,15.63
2022-11-09T05:25:55.476Z,13.90
2022-11-09T05:28:23.762Z,14.70
2022-11-09T05:30:51.933Z,14.50
2022-11-09T05:33:20.331Z,14.47
2022-11-09T05:35:49.229Z,12.00
2022-11-09T05:38:17.444Z,11.93
2022-11-09T05:40:46.071Z,13.53
2022-11-09T05:43:15.701Z,13.53
2022-11-09T05:45:44.668Z,13.27
2022-11-09T05:48:13.355Z,13.30
2022-11-09T05:50:42.869Z,13.60
2022-11-09T05:53:11.754Z,13.57
2022-11-09T05:55:40.345Z,14.03
2022-11-09T05:58:08.553Z,12.77
2022-11-09T06:00:38.425Z,12.83
2022-11-09T06:03:07.982Z,13.63
2022-11-09T06:05:36.733Z,11.83
2022-11-09T06:08:05.833Z,13.73
2022-11-09T06:10:34.365Z,12.70
2022-11-09T06:13:02.862Z,12.43
2022-11-09T06:15:31.512Z,12.07
2022-11-09T06:18:01.167Z,13.63
2022-11-09T06:20:29.884Z,12.47
2022-11-09T06:23:03.106Z,12.00
2022-11-09T06:25:33.127Z,12.63
2022-11-09T06:28:01.635Z,11.93
2022-11-09T06:30:29.863Z,11.97
2022-11-09T06:33:02.962Z,12.40
2022-11-09T06:35:31.495Z,11.93
2022-11-09T06:38:00.259Z,11.97
2022-11-09T06:40:28.839Z,11.20
2022-11-09T06:42:58.605Z,12.27
2022-11-09T06:45:26.934Z,10.20
2022-11-09T06:47:58.145Z,11.23
2022-11-09T06:50:28.886Z,9.90
2022-11-09T06:52:59.379Z,10.53
2022-11-09T06:55:27.866Z,10.57
2022-11-09T06:57:57.158Z,10.23
2022-11-09T07:00:26.315Z,11.50
2022-11-09T07:02:55.881Z,11.73
2022-11-09T07:05:24.103Z,11.73
2022-11-09T07:07:53.656Z,11.43
2022-11-09T07:10:21.863Z,11.67
2022-11-09T07:12:50.203Z,11.30
2022-11-09T07:15:18.737Z,11.73
2022-11-09T07:17:46.896Z,11.70
2022-11-09T07:20:15.405Z,11.50
2022-11-09T07:22:43.785Z,11.97
2022-11-09T07:25:13.842Z,11.87
2022-11-09T07:27:42.030Z,12.50
2022-11-09T07:30:11.384Z,11.30
2022-11-09T07:33:07.401Z,11.70
2022-11-09T07:35:29.406Z,12.37
2022-11-09T07:38:01.325Z,11.13
2022-11-09T07:40:31.758Z,12.70
2022-11-09T07:43:01.205Z,12.07
2022-11-09T07:45:29.580Z,11.30
2022-11-09T07:47:58.489Z,11.53
2022-11-09T07:50:26.927Z,12.33
2022-11-09T07:52:56.427Z,12.13
2022-11-09T07:55:25.006Z,13.57
2022-11-09T07:57:58.022Z,11.90
2022-11-09T08:00:26.963Z,11.90
2022-11-09T08:02:55.505Z,11.37
2022-11-09T08:05:23.745Z,10.80
2022-11-09T08:07:56.295Z,9.90
2022-11-09T08:10:24.941Z,10.03
2022-11-09T08:12:59.280Z,9.07
2022-11-09T08:15:28.068Z,8.90
2022-11-09T08:17:56.341Z,9.83
2022-11-09T08:20:24.491Z,9.43
2022-11-09T08:22:52.707Z,10.17
2022-11-09T08:25:21.402Z,9.37
2022-11-09T08:27:49.754Z,9.37
2022-11-09T08:30:20.805Z,9.90
2022-11-09T08:32:50.174Z,9.90
2022-11-09T08:35:20.410Z,9.53
2022-11-09T08:37:49.620Z,10.47
2022-11-09T08:40:19.664Z,9.40
2022-11-09T08:42:47.803Z,10.70
2022-11-09T08:45:17.190Z,10.70
2022-11-09T08:47:47.256Z,10.40
2022-11-09T08:50:17.036Z,9.50
2022-11-09T08:52:45.116Z,8.50
2022-11-09T08:55:13.325Z,8.53
2022-11-09T08:57:41.434Z,8.93
2022-11-09T09:00:10.639Z,9.20
2022-11-09T09:02:38.812Z,9.43
2022-11-09T09:05:10.167Z,8.73
2022-11-09T09:07:38.291Z,9.57
2022-11-09T09:10:07.241Z,9.27
2022-11-09T09:12:35.711Z,9.10
2022-11-09T09:15:04.479Z,9.97
2022-11-09T09:17:35.580Z,10.00
2022-11-09T09:20:04.371Z,10.00
2022-11-09T09:22:34.333Z,9.90
2022-11-09T09:25:02.876Z,10.67
2022-11-09T09:27:31.259Z,10.63
2022-11-09T09:29:59.909Z,10.00
2022-11-09T09:32:28.112Z,10.40
2022-11-09T09:34:56.264Z,10.83
2022-11-09T09:37:24.418Z,10.47
2022-11-09T09:39:54.054Z,10.70
2022-11-09T09:42:25.284Z,9.97
2022-11-09T09:44:57.534Z,9.70
2022-11-09T09:47:31.262Z,10.03
2022-11-09T09:50:02.919Z,10.13
2022-11-09T09:52:42.015Z,10.53
2022-11-09T09:55:19.154Z,9.10
2022-11-09T09:57:52.182Z,8.90
2022-11-09T10:00:23.790Z,8.60
2022-11-09T10:02:52.481Z,9.40
2022-11-09T10:05:21.494Z,8.30
2022-11-09T10:07:53.929Z,8.43
2022-11-09T10:10:40.100Z,8.33
2022-11-09T10:13:22.521Z,8.80
2022-11-09T10:15:55.971Z,7.97
2022-11-09T10:18:43.268Z,8.67
2022-11-09T10:21:19.771Z,7.67
2022-11-09T10:23:58.552Z,8.33
2022-11-09T10:26:35.100Z,7.87
2022-11-09T10:29:16.039Z,7.10
2022-11-09T10:31:45.701Z,8.43
2022-11-09T10:34:18.990Z,8.53
2022-11-09T10:36:51.694Z,8.07
2022-11-09T10:39:20.481Z,8.33
2022-11-09T10:41:50.163Z,8.17
2022-11-09T10:44:20.390Z,8.43
2022-11-09T10:47:06.823Z,9.03
2022-11-09T10:49:35.700Z,9.00
2022-11-09T10:52:04.628Z,9.07
2022-11-09T10:54:34.961Z,9.20
2022-11-09T10:57:12.835Z,8.10
2022-11-09T10:59:51.074Z,8.47
2022-11-09T11:02:43.904Z,8.77
2022-11-09T11:05:30.450Z,8.87
2022-11-09T11:07:59.201Z,8.70
2022-11-09T11:10:27.481Z,8.90
2022-11-09T11:13:21.483Z,9.40
2022-11-09T11:15:50.271Z,8.67
2022-11-09T11:18:22.171Z,9.27
2022-11-09T11:20:51.203Z,8.40
2022-11-09T11:23:21.338Z,8.93
2022-11-09T11:26:03.004Z,9.00
2022-11-09T11:28:36.215Z,9.57
2022-11-09T11:31:04.549Z,8.50
2022-11-09T11:33:34.790Z,8.07
2022-11-09T11:36:08.732Z,8.43
2022-11-09T11:38:39.752Z,8.20
2022-11-09T11:41:21.897Z,8.10
2022-11-09T11:43:58.622Z,8.63
2022-11-09T11:46:35.707Z,8.37
2022-11-09T11:49:32.239Z,8.50
2022-11-09T11:52:05.875Z,8.03
2022-11-09T11:54:43.632Z,8.50
2022-11-09T11:57:21.039Z,8.37
2022-11-09T12:00:10.512Z,9.00
2022-11-09T12:03:14.422Z,8.47
2022-11-09T12:06:06.842Z,8.67
2022-11-09T12:08:44.393Z,9.03
2022-11-09T12:11:19.543Z,9.63
2022-11-09T12:13:59.853Z,8.30
2022-11-09T12:16:35.486Z,9.47
2022-11-09T12:19:35.336Z,9.33
2022-11-09T12:22:08.604Z,9.27
2022-11-09T12:24:41.136Z,9.97
2022-11-09T12:27:32.066Z,9.77
2022-11-09T12:30:05.430Z,10.07
2022-11-09T12:32:38.836Z,9.37
2022-11-09T12:35:31.225Z,9.57
2022-11-09T12:38:03.974Z,10.40
2022-11-09T12:40:34.818Z,8.63
2022-11-09T12:43:06.822Z,10.20
2022-11-09T12:45:36.270Z,9.80
2022-11-09T12:48:11.441Z,10.07
2022-11-09T12:50:39.972Z,9.17
2022-11-09T12:53:08.612Z,10.03
2022-11-09T12:55:43.922Z,9.60
2022-11-09T12:58:23.409Z,9.80
2022-11-09T13:00:54.566Z,9.07
2022-11-09T13:03:27.646Z,9.87
2022-11-09T13:06:12.533Z,9.37
2022-11-09T13:08:41.361Z,8.53
2022-11-09T13:11:21.075Z,9.17
2022-11-09T13:13:49.276Z,9.03
2022-11-09T13:16:35.306Z,8.17
2022-11-09T13:19:04.988Z,9.13
2022-11-09T13:21:38.036Z,8.87
2022-11-09T13:24:51.775Z,8.00
2022-11-09T13:27:47.315Z,9.47
2022-11-09T13:30:52.416Z,8.77
2022-11-09T13:33:24.191Z,9.43
2022-11-09T13:39:40.538Z,8.90
2022-11-09T13:42:27.643Z,8.60
2022-11-09T13:44:55.883Z,8.97
2022-11-09T13:47:25.447Z,10.80
2022-11-09T13:49:53.871Z,15.43
2022-11-09T13:52:50.868Z,10.07
2022-11-09T13:55:25.292Z,8.70
2022-11-09T13:57:55.522Z,9.07
2022-11-09T14:00:25.674Z,10.00
2022-11-09T14:02:55.566Z,10.27
2022-11-09T14:05:31.485Z,10.10
2022-11-09T14:08:01.959Z,9.97
2022-11-09T14:10:57.701Z,10.53
2022-11-09T14:13:39.685Z,11.00
2022-11-09T14:16:13.584Z,10.30
2022-11-09T14:18:51.023Z,11.50
2022-11-09T14:21:28.926Z,11.33
2022-11-09T14:24:03.531Z,11.73
2022-11-09T14:26:31.781Z,11.60
2022-11-09T14:29:01.384Z,14.07
2022-11-09T14:31:31.234Z,12.60
2022-11-09T14:34:01.283Z,11.83
2022-11-09T14:36:30.546Z,10.73
2022-11-09T14:39:00.113Z,10.00
2022-11-09T14:41:29.066Z,9.37
2022-11-09T14:43:58.683Z,10.63
2022-11-09T14:46:30.268Z,10.27
2022-11-09T14:49:00.383Z,10.50
2022-11-09T14:51:31.847Z,11.30
2022-11-09T14:54:01.245Z,10.97
2022-11-09T14:56:30.684Z,10.47
2022-11-09T14:58:59.045Z,10.43
2022-11-09T15:01:34.992Z,11.33
2022-11-09T15:04:12.725Z,10.77
2022-11-09T15:06:48.027Z,14.57
2022-11-09T15:09:18.910Z,12.30
2022-11-09T15:11:47.456Z,11.57
2022-11-09T15:14:22.595Z,11.60
2022-11-09T15:16:59.373Z,11.13
2022-11-09T15:19:31.467Z,11.97
2022-11-09T15:21:59.772Z,10.67
2022-11-09T15:24:29.305Z,11.07
2022-11-09T15:26:58.613Z,12.13
2022-11-09T15:29:40.845Z,11.10
2022-11-09T15:32:17.186Z,12.37
2022-11-09T15:34:55.111Z,12.47
2022-11-09T15:37:28.253Z,11.93
2022-11-09T15:39:56.804Z,12.83
2022-11-09T15:42:26.312Z,13.10
2022-11-09T15:44:56.605Z,16.77
2022-11-09T15:47:34.063Z,14.37
2022-11-09T15:50:03.595Z,14.93
2022-11-09T15:52:31.786Z,13.63
2022-11-09T15:55:00.005Z,14.60
2022-11-09T15:57:28.220Z,14.57
2022-11-09T15:59:56.534Z,14.03
2022-11-09T16:02:24.815Z,15.13
2022-11-09T16:04:54.467Z,16.63
2022-11-09T16:07:22.683Z,17.80
2022-11-09T16:09:50.872Z,17.47
2022-11-09T16:12:19.443Z,18.17
2022-11-09T16:14:47.662Z,18.70
2022-11-09T16:17:15.954Z,33.37
2022-11-09T16:19:44.162Z,16.23
2022-11-09T16:22:13.872Z,15.93
2022-11-09T16:24:42.017Z,15.20
2022-11-09T16:27:17.224Z,15.70
2022-11-09T16:29:58.485Z,15.93
2022-11-09T16:32:26.807Z,18.60
2022-11-09T16:35:08.711Z,18.23
2022-11-09T16:37:45.023Z,18.27
2022-11-09T16:40:15.101Z,19.77
2022-11-09T16:42:43.252Z,17.63
2022-11-09T16:45:13.518Z,16.60
2022-11-09T16:47:43.649Z,16.80
2022-11-09T16:50:11.884Z,19.85
2022-11-09T16:52:40.003Z,17.83
2022-11-09T16:55:10.934Z,16.40
2022-11-09T16:57:39.123Z,17.97
2022-11-09T17:00:08.581Z,15.93
2022-11-09T17:02:37.284Z,17.83
2022-11-09T17:05:06.192Z,16.13
2022-11-09T17:07:42.008Z,18.03
2022-11-09T17:10:12.482Z,18.27
2022-11-09T17:12:40.595Z,17.47
2022-11-09T17:15:10.025Z,17.73
2022-11-09T17:17:38.192Z,23.87
2022-11-09T17:20:07.823Z,20.43
2022-11-09T17:22:36.003Z,19.97
2022-11-09T17:25:04.300Z,17.43
2022-11-09T17:27:33.872Z,16.97
2022-11-09T17:30:02.325Z,16.93
2022-11-09T17:32:30.618Z,16.63
2022-11-09T17:34:58.775Z,16.33
2022-11-09T17:37:27.083Z,18.80
2022-11-09T17:39:55.195Z,17.30
2022-11-09T17:42:23.442Z,18.83
2022-11-09T17:44:53.034Z,18.60
2022-11-09T17:47:21.143Z,18.10
2022-11-09T17:49:49.583Z,22.80
2022-11-09T17:52:17.873Z,22.27
2022-11-09T17:54:46.151Z,19.70
2022-11-09T17:57:14.312Z,18.80
2022-11-09T17:59:42.802Z,19.63
2022-11-09T18:02:12.412Z,21.80
2022-11-09T18:04:41.176Z,19.90
2022-11-09T18:07:09.320Z,18.20
2022-11-09T18:09:42.146Z,18.90
2022-11-09T18:12:10.890Z,19.17
2022-11-09T18:14:39.392Z,19.27
2022-11-09T18:17:07.954Z,18.87
2022-11-09T18:19:37.721Z,18.83
2022-11-09T18:22:11.460Z,15.77
2022-11-09T18:24:40.810Z,22.63
2022-11-09T18:27:09.316Z,15.70
2022-11-09T18:29:37.493Z,14.07
2022-11-09T18:32:06.671Z,15.37
2022-11-09T18:34:34.868Z,16.93
2022-11-09T18:37:04.671Z,16.80
2022-11-09T18:39:32.975Z,20.33
2022-11-09T18:42:02.059Z,18.33
2022-11-09T18:44:30.423Z,19.83
2022-11-09T18:47:04.857Z,19.17
2022-11-09T18:49:34.435Z,18.90
2022-11-09T18:52:02.890Z,18.60
2022-11-09T18:54:32.928Z,18.53
2022-11-09T18:57:01.204Z,18.13
2022-11-09T18:59:29.333Z,18.40
2022-11-09T19:01:57.520Z,17.80
2022-11-09T19:04:25.632Z,17.83
2022-11-09T19:06:54.960Z,18.07
2022-11-09T19:09:35.543Z,18.00
2022-11-09T19:12:08.305Z,23.77
2022-11-09T19:14:41.164Z,21.27
2022-11-09T19:17:12.672Z,19.10
2022-11-09T19:19:40.913Z,18.23
2022-11-09T19:22:15.954Z,17.93
2022-11-09T19:24:44.163Z,18.27
2022-11-09T19:27:13.755Z,19.83
2022-11-09T19:29:41.953Z,17.43
2022-11-09T19:32:10.837Z,17.53
2022-11-09T19:34:39.113Z,17.37
2022-11-09T19:37:07.242Z,17.87
2022-11-09T19:39:39.128Z,17.73
2022-11-09T19:42:10.073Z,19.95
2022-11-09T19:44:39.641Z,17.07
2022-11-09T19:47:07.874Z,17.45
2022-11-09T19:49:35.981Z,17.20
2022-11-09T19:52:04.182Z,16.93
2022-11-09T19:54:32.303Z,15.97
2022-11-09T19:57:00.671Z,16.00
2022-11-09T19:59:28.773Z,15.70
2022-11-09T20:01:58.402Z,27.87
2022-11-09T20:04:26.532Z,18.10
2022-11-09T20:06:54.714Z,15.20
2022-11-09T20:09:23.056Z,16.57
2022-11-09T20:12:08.587Z,15.20
2022-11-09T20:14:36.727Z,15.03
2022-11-09T20:17:06.600Z,16.10
2022-11-09T20:19:34.793Z,14.83
2022-11-09T20:22:03.434Z,16.23
2022-11-09T20:24:32.235Z,15.43
2022-11-09T20:27:00.323Z,15.33
2022-11-09T20:29:28.456Z,14.97
2022-11-09T20:31:56.784Z,17.90
2022-11-09T20:34:29.686Z,15.30
2022-11-09T20:36:58.007Z,15.23
2022-11-09T20:39:26.113Z,14.67
2022-11-09T20:41:54.362Z,15.53
2022-11-09T20:44:23.377Z,15.73
2022-11-09T20:46:51.563Z,15.67
2022-11-09T20:49:20.405Z,15.47
2022-11-09T20:51:50.215Z,15.23
2022-11-09T20:54:18.453Z,16.50
2022-11-09T20:56:46.805Z,16.77
2022-11-09T20:59:15.390Z,16.20
2022-11-09T21:01:43.572Z,16.23
2022-11-09T21:04:11.952Z,17.50
2022-11-09T21:06:40.352Z,16.70
2022-11-09T21:09:10.191Z,16.30
2022-11-09T21:11:58.523Z,33.73
2022-11-09T21:14:26.741Z,23.00
2022-11-09T21:16:54.895Z,15.00
2022-11-09T21:19:23.010Z,14.87
2022-11-09T21:21:52.001Z,14.80
2022-11-09T21:24:39.109Z,14.23
2022-11-09T21:27:24.587Z,15.93
2022-11-09T21:29:52.768Z,13.83
2022-11-09T21:32:21.801Z,14.63
2022-11-09T21:34:50.191Z,15.13
2022-11-09T21:37:18.824Z,14.57
2022-11-09T21:39:48.333Z,14.53
2022-11-09T21:42:16.502Z,14.50
2022-11-09T21:44:44.754Z,13.10
2022-11-09T21:47:13.412Z,14.30
2022-11-09T21:49:41.663Z,15.63
2022-11-09T21:52:09.862Z,14.77
2022-11-09T21:54:37.983Z,15.63
2022-11-09T21:57:07.565Z,14.33
2022-11-09T21:59:35.814Z,14.97
2022-11-09T22:02:04.022Z,14.63
2022-11-09T22:04:32.163Z,13.97
2022-11-09T22:07:00.419Z,14.67
2022-11-09T22:09:35.866Z,15.50
2022-11-09T22:12:32.182Z,15.50
2022-11-09T22:15:17.752Z,14.40
2022-11-09T22:17:45.843Z,14.97
2022-11-09T22:20:36.733Z,15.53
2022-11-09T22:23:06.660Z,14.37
2022-11-09T22:25:34.951Z,15.13
2022-11-09T22:28:04.617Z,15.57
2022-11-09T22:30:32.771Z,15.53
2022-11-09T22:33:00.983Z,14.17
2022-11-09T22:35:29.071Z,14.83
2022-11-09T22:38:02.556Z,15.43
2022-11-09T22:40:30.722Z,14.93
2022-11-09T22:42:59.197Z,15.47
2022-11-09T22:45:28.742Z,15.27
2022-11-09T22:47:56.906Z,15.53
2022-11-09T22:50:25.112Z,14.87
2022-11-09T22:52:54.166Z,14.43
2022-11-09T22:55:22.398Z,15.20
2022-11-09T22:57:50.523Z,15.23
2022-11-09T23:00:19.733Z,15.30
2022-11-09T23:02:49.351Z,15.23
2022-11-09T23:05:17.851Z,16.03
2022-11-09T23:07:46.031Z,16.23
2022-11-09T23:10:14.226Z,16.33
2022-11-09T23:12:42.412Z,16.60
2022-11-09T23:15:13.499Z,16.20
2022-11-09T23:17:59.354Z,15.63
2022-11-09T23:20:34.350Z,15.03
2022-11-09T23:23:03.782Z,14.90
2022-11-09T23:25:49.774Z,16.30
2022-11-09T23:28:18.353Z,15.00
2022-11-09T23:30:46.461Z,14.83
2022-11-09T23:33:14.645Z,14.80
2022-11-09T23:35:44.164Z,15.03
2022-11-09T23:38:12.861Z,15.77
2022-11-09T23:40:41.015Z,14.17
2022-11-09T23:43:10.474Z,14.50
2022-11-09T23:45:40.502Z,15.00
2022-11-09T23:48:10.113Z,14.17
2022-11-09T23:50:38.272Z,13.73
2022-11-09T23:53:07.832Z,13.00
2022-11-09T23:55:36.032Z,13.37
2022-11-09T23:58:04.922Z,13.87
